createdAt,value
2019-02-24T00:01:38.614Z,11.93
2019-02-24T00:04:10.726Z,11.35
2019-02-24T00:06:40.021Z,11.10
2019-02-24T00:09:09.310Z,12.40
2019-02-24T00:11:38.611Z,11.78
2019-02-24T00:14:07.855Z,11.80
2019-02-24T00:16:37.143Z,11.38
2019-02-24T00:19:06.390Z,10.98
2019-02-24T00:21:35.697Z,10.98
2019-02-24T00:24:04.943Z,11.35
2019-02-24T00:26:34.246Z,11.20
2019-02-24T00:29:03.468Z,12.05
2019-02-24T00:31:32.702Z,11.08
2019-02-24T00:34:01.966Z,11.55
2019-02-24T00:36:31.274Z,10.88
2019-02-24T00:39:00.537Z,11.80
2019-02-24T00:41:29.824Z,14.25
2019-02-24T00:43:59.117Z,13.35
2019-02-24T00:46:28.390Z,11.88
2019-02-24T00:48:57.674Z,12.10
2019-02-24T00:51:26.978Z,12.23
2019-02-24T00:53:56.275Z,11.90
2019-02-24T00:56:25.578Z,11.27
2019-02-24T00:58:54.885Z,11.45
2019-02-24T01:01:24.216Z,11.00
2019-02-24T01:03:53.288Z,11.80
2019-02-24T01:06:22.529Z,11.47
2019-02-24T01:08:51.822Z,11.60
2019-02-24T01:11:21.021Z,10.35
2019-02-24T01:13:50.386Z,11.38
2019-02-24T01:16:19.659Z,10.70
2019-02-24T01:18:48.945Z,11.12
2019-02-24T01:21:18.285Z,11.28
2019-02-24T01:23:47.607Z,10.40
2019-02-24T01:26:16.907Z,11.03
2019-02-24T01:28:46.153Z,10.80
2019-02-24T01:31:15.389Z,10.10
2019-02-24T01:33:44.650Z,11.38
2019-02-24T01:36:13.900Z,11.18
2019-02-24T01:38:43.185Z,11.45
2019-02-24T01:41:12.408Z,10.50
2019-02-24T01:43:41.673Z,10.25
2019-02-24T01:46:10.921Z,10.90
2019-02-24T01:48:40.211Z,10.48
2019-02-24T01:51:09.497Z,10.15
2019-02-24T01:53:38.744Z,10.23
2019-02-24T01:56:07.967Z,10.85
2019-02-24T01:58:37.233Z,10.45
2019-02-24T02:01:06.525Z,10.35
2019-02-24T02:03:35.814Z,10.28
2019-02-24T02:06:05.058Z,9.98
2019-02-24T02:08:34.310Z,10.10
2019-02-24T02:11:03.568Z,10.35
2019-02-24T02:13:32.789Z,9.63
2019-02-24T02:16:02.047Z,9.90
2019-02-24T02:18:31.277Z,9.68
2019-02-24T02:21:00.595Z,9.50
2019-02-24T02:23:29.814Z,9.38
2019-02-24T02:25:59.092Z,9.40
2019-02-24T02:28:28.358Z,9.78
2019-02-24T02:30:57.589Z,9.38
2019-02-24T02:33:26.830Z,9.45
2019-02-24T02:35:56.086Z,9.10
2019-02-24T02:38:25.297Z,9.30
2019-02-24T02:40:54.574Z,9.43
2019-02-24T02:43:23.810Z,9.23
2019-02-24T02:45:53.088Z,8.88
2019-02-24T02:48:22.318Z,9.43
2019-02-24T02:50:51.589Z,10.03
2019-02-24T02:53:20.792Z,9.20
2019-02-24T02:55:50.071Z,11.70
2019-02-24T02:58:19.293Z,10.05
2019-02-24T03:00:48.525Z,10.20
2019-02-24T03:03:17.730Z,9.75
2019-02-24T03:05:57.493Z,10.28
2019-02-24T03:08:45.338Z,9.58
2019-02-24T03:11:14.860Z,10.08
2019-02-24T03:13:44.061Z,9.58
2019-02-24T03:16:13.555Z,9.90
2019-02-24T03:18:42.951Z,10.50
2019-02-24T03:21:12.177Z,10.40
2019-02-24T03:23:41.433Z,10.20
2019-02-24T03:26:10.715Z,10.40
2019-02-24T03:28:39.931Z,10.30
2019-02-24T03:31:09.199Z,10.88
2019-02-24T03:33:38.456Z,10.40
2019-02-24T03:36:07.656Z,10.72
2019-02-24T03:38:36.911Z,10.72
2019-02-24T03:41:06.232Z,10.40
2019-02-24T03:43:35.492Z,10.13
2019-02-24T03:46:04.718Z,10.55
2019-02-24T03:48:33.961Z,10.88
2019-02-24T03:51:03.197Z,10.63
2019-02-24T03:53:32.435Z,11.75
2019-02-24T03:56:01.653Z,11.88
2019-02-24T03:58:30.929Z,12.15
2019-02-24T04:01:00.180Z,13.68
2019-02-24T04:03:29.486Z,14.93
2019-02-24T04:05:58.750Z,14.15
2019-02-24T04:08:28.149Z,13.40
2019-02-24T04:10:57.475Z,13.80
2019-02-24T04:13:26.822Z,13.08
2019-02-24T04:15:56.069Z,13.03
2019-02-24T04:18:25.309Z,12.88
2019-02-24T04:20:54.566Z,13.38
2019-02-24T04:23:23.785Z,12.47
2019-02-24T04:25:53.048Z,12.03
2019-02-24T04:28:22.294Z,11.85
2019-02-24T04:30:51.494Z,12.18
2019-02-24T04:33:20.725Z,12.33
2019-02-24T04:35:49.977Z,12.53
2019-02-24T04:38:19.189Z,12.15
2019-02-24T04:40:48.452Z,12.23
2019-02-24T04:43:17.707Z,11.38
2019-02-24T04:45:46.967Z,11.75
2019-02-24T04:48:16.173Z,11.57
2019-02-24T04:50:45.451Z,11.60
2019-02-24T04:53:14.686Z,10.43
2019-02-24T04:55:43.931Z,10.25
2019-02-24T04:58:13.157Z,11.60
2019-02-24T05:00:42.381Z,11.25
2019-02-24T05:03:11.710Z,11.40
2019-02-24T05:05:41.004Z,11.25
2019-02-24T05:08:10.229Z,11.40
2019-02-24T05:10:39.455Z,11.20
2019-02-24T05:13:08.695Z,11.65
2019-02-24T05:15:37.954Z,11.57
2019-02-24T05:18:07.233Z,10.98
2019-02-24T05:20:36.513Z,11.75
2019-02-24T05:23:05.776Z,13.00
2019-02-24T05:25:34.998Z,12.73
2019-02-24T05:28:04.261Z,13.10
2019-02-24T05:30:33.519Z,13.38
2019-02-24T05:33:02.843Z,14.45
2019-02-24T05:35:32.089Z,14.78
2019-02-24T05:38:01.362Z,15.65
2019-02-24T05:40:30.597Z,15.93
2019-02-24T05:42:59.879Z,16.35
2019-02-24T05:45:29.141Z,16.77
2019-02-24T05:47:58.448Z,17.48
2019-02-24T05:50:27.700Z,17.02
2019-02-24T05:52:56.966Z,17.92
2019-02-24T05:55:26.220Z,17.00
2019-02-24T05:57:55.662Z,17.62
2019-02-24T06:00:24.899Z,17.90
2019-02-24T06:02:54.178Z,17.55
2019-02-24T06:05:23.413Z,18.70
2019-02-24T06:07:52.682Z,17.32
2019-02-24T06:10:21.905Z,18.40
2019-02-24T06:12:51.277Z,17.32
2019-02-24T06:15:20.521Z,17.77
2019-02-24T06:17:49.786Z,15.50
2019-02-24T06:20:19.070Z,14.57
2019-02-24T06:22:48.356Z,12.95
2019-02-24T06:25:17.688Z,15.73
2019-02-24T06:27:46.902Z,15.00
2019-02-24T06:30:16.203Z,15.63
2019-02-24T06:32:45.434Z,16.07
2019-02-24T06:35:14.698Z,16.00
2019-02-24T06:37:43.966Z,16.65
2019-02-24T06:40:13.323Z,17.03
2019-02-24T06:42:42.781Z,17.62
2019-02-24T06:45:12.135Z,17.52
2019-02-24T06:47:43.121Z,17.70
2019-02-24T06:50:12.499Z,17.88
2019-02-24T06:52:41.732Z,18.05
2019-02-24T06:55:10.948Z,18.25
2019-02-24T06:57:40.201Z,16.85
2019-02-24T07:00:14.093Z,17.48
2019-02-24T07:02:40.743Z,18.10
2019-02-24T07:05:10.067Z,18.98
2019-02-24T07:07:39.336Z,18.60
2019-02-24T07:10:08.852Z,16.87
2019-02-24T07:12:38.107Z,16.15
2019-02-24T07:15:08.916Z,15.45
2019-02-24T07:17:38.216Z,16.15
2019-02-24T07:20:07.600Z,14.65
2019-02-24T07:22:36.877Z,16.05
2019-02-24T07:25:06.318Z,14.75
2019-02-24T07:27:35.647Z,14.53
2019-02-24T07:30:04.927Z,15.18
2019-02-24T07:32:34.200Z,15.40
2019-02-24T07:35:03.473Z,15.60
2019-02-24T07:37:32.753Z,15.18
2019-02-24T07:40:02.017Z,14.68
2019-02-24T07:42:31.379Z,15.35
2019-02-24T07:45:00.611Z,13.85
2019-02-24T07:47:29.970Z,11.48
2019-02-24T07:49:59.264Z,10.78
2019-02-24T07:52:28.551Z,11.43
2019-02-24T07:54:57.910Z,11.50
2019-02-24T07:57:27.227Z,11.33
2019-02-24T07:59:56.550Z,11.38
2019-02-24T08:02:25.826Z,11.90
2019-02-24T08:04:55.055Z,11.20
2019-02-24T08:07:24.309Z,10.68
2019-02-24T08:09:53.568Z,10.68
2019-02-24T08:12:22.840Z,10.80
2019-02-24T08:14:52.171Z,11.08
2019-02-24T08:17:21.475Z,8.63
2019-02-24T08:19:50.777Z,8.83
2019-02-24T08:22:20.031Z,8.75
2019-02-24T08:24:49.327Z,8.75
2019-02-24T08:27:18.593Z,8.78
2019-02-24T08:29:47.904Z,8.23
2019-02-24T08:32:17.149Z,9.38
2019-02-24T08:34:46.442Z,8.80
2019-02-24T08:37:15.705Z,8.53
2019-02-24T08:39:44.980Z,7.95
2019-02-24T08:42:14.327Z,8.03
2019-02-24T08:44:43.654Z,8.05
2019-02-24T08:47:12.951Z,7.92
2019-02-24T08:49:42.326Z,7.80
2019-02-24T08:52:11.624Z,7.55
2019-02-24T08:54:41.017Z,7.50
2019-02-24T08:57:10.305Z,8.25
2019-02-24T08:59:39.660Z,7.55
2019-02-24T09:02:08.950Z,7.95
2019-02-24T09:04:38.259Z,7.85
2019-02-24T09:07:08.571Z,6.67
2019-02-24T09:09:37.978Z,6.80
2019-02-24T09:12:07.282Z,6.85
2019-02-24T09:14:36.564Z,7.22
2019-02-24T09:17:05.821Z,6.58
2019-02-24T09:19:36.667Z,7.17
2019-02-24T09:22:06.128Z,7.30
2019-02-24T09:24:35.407Z,6.90
2019-02-24T09:27:04.723Z,6.37
2019-02-24T09:29:34.005Z,6.03
2019-02-24T09:32:03.318Z,5.30
2019-02-24T09:34:32.609Z,5.08
2019-02-24T09:37:01.962Z,4.50
2019-02-24T09:39:31.190Z,4.17
2019-02-24T09:42:00.453Z,4.28
2019-02-24T09:44:29.735Z,4.72
2019-02-24T09:46:59.074Z,5.12
2019-02-24T09:49:28.350Z,5.15
2019-02-24T09:51:57.620Z,4.40
2019-02-24T09:54:26.888Z,3.95
2019-02-24T09:56:56.157Z,4.30
2019-02-24T09:59:25.433Z,3.45
2019-02-24T10:01:54.702Z,3.62
2019-02-24T10:04:23.955Z,3.67
2019-02-24T10:06:53.250Z,3.90
2019-02-24T10:09:22.516Z,4.00
2019-02-24T10:11:51.786Z,3.85
2019-02-24T10:14:21.110Z,4.08
2019-02-24T10:16:50.411Z,3.95
2019-02-24T10:19:19.688Z,4.08
2019-02-24T10:21:49.062Z,3.85
2019-02-24T10:24:18.356Z,3.62
2019-02-24T10:26:47.660Z,3.80
2019-02-24T10:29:16.975Z,3.80
2019-02-24T10:31:46.205Z,3.83
2019-02-24T10:34:15.562Z,3.70
2019-02-24T10:36:44.852Z,3.47
2019-02-24T10:39:14.379Z,3.52
2019-02-24T10:41:43.633Z,3.58
2019-02-24T10:44:12.943Z,3.60
2019-02-24T10:46:42.225Z,3.55
2019-02-24T10:49:11.518Z,3.60
2019-02-24T10:51:40.784Z,3.35
2019-02-24T10:54:10.120Z,3.65
2019-02-24T10:56:39.403Z,3.47
2019-02-24T10:59:08.686Z,3.40
2019-02-24T11:01:37.988Z,3.60
2019-02-24T11:04:07.336Z,3.58
2019-02-24T11:06:36.589Z,4.10
2019-02-24T11:09:07.671Z,3.52
2019-02-24T11:11:36.980Z,3.80
2019-02-24T11:14:06.231Z,3.70
2019-02-24T11:16:35.562Z,3.80
2019-02-24T11:19:04.837Z,5.78
2019-02-24T11:21:34.135Z,6.17
2019-02-24T11:24:03.439Z,6.10
2019-02-24T11:26:32.778Z,3.67
2019-02-24T11:29:02.065Z,5.20
2019-02-24T11:31:38.189Z,3.60
2019-02-24T11:34:02.399Z,3.45
2019-02-24T11:36:31.743Z,3.12
2019-02-24T11:39:01.007Z,3.30
2019-02-24T11:41:30.314Z,3.40
2019-02-24T11:43:59.583Z,3.70
2019-02-24T11:46:28.964Z,5.58
2019-02-24T11:48:58.292Z,7.33
2019-02-24T11:51:27.579Z,31.95
2019-02-24T11:53:56.840Z,4.45
2019-02-24T11:56:26.191Z,3.37
2019-02-24T11:58:55.451Z,3.90
2019-02-24T12:01:24.746Z,6.58
2019-02-24T12:03:54.082Z,5.95
2019-02-24T12:06:23.513Z,33.40
2019-02-24T12:08:52.848Z,9.10
2019-02-24T12:11:22.115Z,3.80
2019-02-24T12:13:51.415Z,16.57
2019-02-24T12:16:20.682Z,9.88
2019-02-24T12:18:49.991Z,6.15
2019-02-24T12:21:19.258Z,7.15
2019-02-24T12:23:48.563Z,5.50
2019-02-24T12:26:17.942Z,6.40
2019-02-24T12:28:47.252Z,5.55
2019-02-24T12:31:16.538Z,5.57
2019-02-24T12:33:45.984Z,4.90
2019-02-24T12:36:15.323Z,4.87
2019-02-24T12:38:44.680Z,6.47
2019-02-24T12:41:15.411Z,5.20
2019-02-24T12:43:44.802Z,4.87
2019-02-24T12:46:14.108Z,3.95
2019-02-24T12:48:43.379Z,3.50
2019-02-24T12:51:12.694Z,5.37
2019-02-24T12:53:41.966Z,3.10
2019-02-24T12:56:11.419Z,3.12
2019-02-24T12:58:40.718Z,3.30
2019-02-24T13:01:10.074Z,9.98
2019-02-24T13:03:39.467Z,14.35
2019-02-24T13:06:08.779Z,3.65
2019-02-24T13:08:38.080Z,3.25
2019-02-24T13:11:07.418Z,3.20
2019-02-24T13:13:36.719Z,2.98
2019-02-24T13:16:06.070Z,3.20
2019-02-24T13:18:36.840Z,3.12
2019-02-24T13:21:06.333Z,3.50
2019-02-24T13:23:35.788Z,3.10
2019-02-24T13:26:05.176Z,2.90
2019-02-24T13:28:35.353Z,3.40
2019-02-24T13:31:04.650Z,3.37
2019-02-24T13:33:33.963Z,4.05
2019-02-24T13:36:03.411Z,3.83
2019-02-24T13:38:32.772Z,3.50
2019-02-24T13:41:02.075Z,3.70
2019-02-24T13:43:31.463Z,3.80
2019-02-24T13:46:00.912Z,2.95
2019-02-24T13:48:30.314Z,3.40
2019-02-24T13:50:59.630Z,3.25
2019-02-24T13:53:28.920Z,5.00
2019-02-24T13:55:58.331Z,3.95
2019-02-24T13:58:27.619Z,3.22
2019-02-24T14:00:56.941Z,4.58
2019-02-24T14:03:26.232Z,4.00
2019-02-24T14:05:55.570Z,3.92
2019-02-24T14:08:24.874Z,17.82
2019-02-24T14:10:54.274Z,13.18
2019-02-24T14:13:23.610Z,5.97
2019-02-24T14:15:52.893Z,4.70
2019-02-24T14:18:22.338Z,9.75
2019-02-24T14:20:51.635Z,3.65
2019-02-24T14:23:21.126Z,3.10
2019-02-24T14:25:50.539Z,3.60
2019-02-24T14:28:19.825Z,3.70
2019-02-24T14:30:49.133Z,3.70
2019-02-24T14:33:18.444Z,3.87
2019-02-24T14:35:47.738Z,4.72
2019-02-24T14:38:17.040Z,5.20
2019-02-24T14:40:46.376Z,4.87
2019-02-24T14:43:15.645Z,5.25
2019-02-24T14:45:49.688Z,4.58
2019-02-24T14:48:15.946Z,4.92
2019-02-24T14:50:45.245Z,4.60
2019-02-24T14:53:14.549Z,5.12
2019-02-24T14:55:43.853Z,4.40
2019-02-24T14:58:13.181Z,4.50
2019-02-24T15:00:42.471Z,4.37
2019-02-24T15:03:11.789Z,4.28
2019-02-24T15:05:41.093Z,4.60
2019-02-24T15:08:11.737Z,4.80
2019-02-24T15:10:41.355Z,5.17
2019-02-24T15:13:10.665Z,4.92
2019-02-24T15:15:39.927Z,4.95
2019-02-24T15:18:09.240Z,5.47
2019-02-24T15:20:39.104Z,5.10
2019-02-24T15:23:08.480Z,4.75
2019-02-24T15:25:37.929Z,4.83
2019-02-24T15:28:07.416Z,4.22
2019-02-24T15:30:37.097Z,4.22
2019-02-24T15:33:06.739Z,3.58
2019-02-24T15:35:37.718Z,4.12
2019-02-24T15:38:07.048Z,4.00
2019-02-24T15:40:36.462Z,3.98
2019-02-24T15:43:05.866Z,4.55
2019-02-24T15:45:35.377Z,4.22
2019-02-24T15:48:04.840Z,4.70
2019-02-24T15:50:34.175Z,4.55
2019-02-24T15:53:03.478Z,4.92
2019-02-24T15:55:32.925Z,4.40
2019-02-24T15:58:02.254Z,4.60
2019-02-24T16:00:31.586Z,4.27
2019-02-24T16:03:02.057Z,3.83
2019-02-24T16:05:31.436Z,4.70
2019-02-24T16:08:00.721Z,4.37
2019-02-24T16:10:29.990Z,3.77
2019-02-24T16:13:06.106Z,3.90
2019-02-24T16:15:35.450Z,4.05
2019-02-24T16:18:04.723Z,4.62
2019-02-24T16:20:34.092Z,4.53
2019-02-24T16:23:03.372Z,4.50
2019-02-24T16:25:32.665Z,4.22
2019-02-24T16:28:02.205Z,4.20
2019-02-24T16:30:31.465Z,4.13
2019-02-24T16:33:09.956Z,8.40
2019-02-24T16:35:31.932Z,7.50
2019-02-24T16:38:01.217Z,4.80
2019-02-24T16:40:30.450Z,10.00
2019-02-24T16:42:59.996Z,11.97
2019-02-24T16:45:29.276Z,13.25
2019-02-24T16:47:58.581Z,9.60
2019-02-24T16:50:27.838Z,7.30
2019-02-24T16:52:57.156Z,10.53
2019-02-24T16:55:26.463Z,8.13
2019-02-24T16:57:55.789Z,6.25
2019-02-24T17:00:25.192Z,7.60
2019-02-24T17:02:54.536Z,8.23
2019-02-24T17:05:23.799Z,7.60
2019-02-24T17:07:53.103Z,7.00
2019-02-24T17:10:22.413Z,5.80
2019-02-24T17:12:51.654Z,5.47
2019-02-24T17:15:20.955Z,6.30
2019-02-24T17:17:50.436Z,7.95
2019-02-24T17:20:19.821Z,7.63
2019-02-24T17:22:49.113Z,8.05
2019-02-24T17:25:18.749Z,8.43
2019-02-24T17:27:48.063Z,7.00
2019-02-24T17:30:17.741Z,7.47
2019-02-24T17:32:47.071Z,7.35
2019-02-24T17:35:16.494Z,6.78
2019-02-24T17:37:45.897Z,7.92
2019-02-24T17:40:15.396Z,8.27
2019-02-24T17:42:44.793Z,9.03
2019-02-24T17:45:15.600Z,10.67
2019-02-24T17:47:45.038Z,13.98
2019-02-24T17:50:14.474Z,7.30
2019-02-24T17:52:44.071Z,9.68
2019-02-24T17:55:13.843Z,8.53
2019-02-24T17:57:43.229Z,7.97
2019-02-24T18:00:23.280Z,9.27
2019-02-24T18:02:52.584Z,9.75
2019-02-24T18:05:21.887Z,9.53
2019-02-24T18:07:51.265Z,10.28
2019-02-24T18:10:20.629Z,14.13
2019-02-24T18:12:49.954Z,12.55
2019-02-24T18:15:19.278Z,11.73
2019-02-24T18:17:48.716Z,14.40
2019-02-24T18:20:18.243Z,10.83
2019-02-24T18:22:47.616Z,10.55
2019-02-24T18:25:17.129Z,10.80
2019-02-24T18:27:46.465Z,11.50
2019-02-24T18:30:20.553Z,11.00
2019-02-24T18:32:49.978Z,9.80
2019-02-24T18:35:19.351Z,9.50
2019-02-24T18:37:48.657Z,10.53
2019-02-24T18:40:17.996Z,11.40
2019-02-24T18:42:47.390Z,12.43
2019-02-24T18:45:16.922Z,11.50
2019-02-24T18:47:46.273Z,12.78
2019-02-24T18:50:15.614Z,11.70
2019-02-24T18:52:44.967Z,10.20
2019-02-24T18:55:17.415Z,9.67
2019-02-24T18:57:46.885Z,10.70
2019-02-24T19:00:17.343Z,9.93
2019-02-24T19:02:46.716Z,9.65
2019-02-24T19:05:16.087Z,9.43
2019-02-24T19:07:45.461Z,8.60
2019-02-24T19:10:15.868Z,8.87
2019-02-24T19:12:45.230Z,9.25
2019-02-24T19:15:16.366Z,9.77
2019-02-24T19:17:45.652Z,10.20
2019-02-24T19:20:16.712Z,10.53
2019-02-24T19:22:46.123Z,10.43
2019-02-24T19:25:15.685Z,13.38
2019-02-24T19:27:45.118Z,14.25
2019-02-24T19:30:15.287Z,13.88
2019-02-24T19:32:44.769Z,12.63
2019-02-24T19:35:14.538Z,13.03
2019-02-24T19:37:43.920Z,14.85
2019-02-24T19:40:14.589Z,13.63
2019-02-24T19:42:44.877Z,14.05
2019-02-24T19:45:15.279Z,13.07
2019-02-24T19:47:44.670Z,12.95
2019-02-24T19:50:15.798Z,13.47
2019-02-24T19:52:45.146Z,11.68
2019-02-24T19:55:14.518Z,12.43
2019-02-24T19:57:43.969Z,12.07
2019-02-24T20:00:17.257Z,12.15
2019-02-24T20:02:46.660Z,11.25
2019-02-24T20:05:16.008Z,12.50
2019-02-24T20:07:45.291Z,11.83
2019-02-24T20:10:15.641Z,12.90
2019-02-24T20:12:44.956Z,13.13
2019-02-24T20:15:14.714Z,12.40
2019-02-24T20:17:44.017Z,11.85
2019-02-24T20:20:13.886Z,13.00
2019-02-24T20:22:43.250Z,13.50
2019-02-24T20:25:14.944Z,14.73
2019-02-24T20:27:44.239Z,14.58
2019-02-24T20:30:25.088Z,16.10
2019-02-24T20:32:54.348Z,17.55
2019-02-24T20:35:24.009Z,18.87
2019-02-24T20:37:53.336Z,17.50
2019-02-24T20:40:22.682Z,17.50
2019-02-24T20:42:51.989Z,16.80
2019-02-24T20:45:21.314Z,17.95
2019-02-24T20:47:50.795Z,17.50
2019-02-24T20:50:20.422Z,18.03
2019-02-24T20:52:49.751Z,17.75
2019-02-24T20:55:19.133Z,17.30
2019-02-24T20:57:48.491Z,17.23
2019-02-24T21:00:30.024Z,18.17
2019-02-24T21:03:01.282Z,17.80
2019-02-24T21:05:30.727Z,19.17
2019-02-24T21:08:00.146Z,18.98
2019-02-24T21:10:29.471Z,19.32
2019-02-24T21:12:58.799Z,18.95
2019-02-24T21:15:28.150Z,17.65
2019-02-24T21:17:57.495Z,18.07
2019-02-24T21:20:27.724Z,19.12
2019-02-24T21:22:57.211Z,17.85
2019-02-24T21:25:26.530Z,16.95
2019-02-24T21:27:55.839Z,16.95
2019-02-24T21:30:25.199Z,15.20
2019-02-24T21:32:54.506Z,15.55
2019-02-24T21:35:23.804Z,16.30
2019-02-24T21:37:53.109Z,16.37
2019-02-24T21:40:23.636Z,15.88
2019-02-24T21:42:53.164Z,16.20
2019-02-24T21:45:22.656Z,16.57
2019-02-24T21:47:51.934Z,16.40
2019-02-24T21:50:21.271Z,16.80
2019-02-24T21:52:50.542Z,15.88
2019-02-24T21:55:19.973Z,16.07
2019-02-24T21:57:49.342Z,16.07
2019-02-24T22:00:20.265Z,16.50
2019-02-24T22:02:49.567Z,16.20
2019-02-24T22:05:19.056Z,16.67
2019-02-24T22:07:48.364Z,16.45
2019-02-24T22:10:17.962Z,15.73
2019-02-24T22:12:47.261Z,16.15
2019-02-24T22:15:17.782Z,15.30
2019-02-24T22:17:47.100Z,16.00
2019-02-24T22:20:16.638Z,16.90
2019-02-24T22:22:46.049Z,16.95
2019-02-24T22:25:17.502Z,14.10
2019-02-24T22:27:46.808Z,16.12
2019-02-24T22:30:16.957Z,15.57
2019-02-24T22:32:46.226Z,14.63
2019-02-24T22:35:15.499Z,15.40
2019-02-24T22:37:44.867Z,15.30
2019-02-24T22:40:16.547Z,16.73
2019-02-24T22:42:45.726Z,16.67
2019-02-24T22:45:16.947Z,18.03
2019-02-24T22:47:46.643Z,15.50
2019-02-24T22:50:16.420Z,15.80
2019-02-24T22:52:45.934Z,16.05
2019-02-24T22:55:15.300Z,16.33
2019-02-24T22:57:44.581Z,14.93
2019-02-24T23:00:33.016Z,13.57
2019-02-24T23:03:02.541Z,12.90
2019-02-24T23:05:31.881Z,12.28
2019-02-24T23:08:01.166Z,14.03
2019-02-24T23:10:30.503Z,13.90
2019-02-24T23:12:59.779Z,15.00
2019-02-24T23:15:29.138Z,16.27
2019-02-24T23:17:58.578Z,14.80
2019-02-24T23:20:27.843Z,15.25
2019-02-24T23:22:57.244Z,14.65
2019-02-24T23:25:26.485Z,15.78
2019-02-24T23:27:55.853Z,15.10
2019-02-24T23:30:25.112Z,16.77
2019-02-24T23:32:54.406Z,17.30
2019-02-24T23:35:23.743Z,22.27
2019-02-24T23:37:53.013Z,23.18
2019-02-24T23:40:22.295Z,28.35
2019-02-24T23:42:51.546Z,17.52
2019-02-24T23:45:20.809Z,18.67
2019-02-24T23:47:50.047Z,16.57
2019-02-24T23:50:19.318Z,13.90
2019-02-24T23:52:48.580Z,12.75
2019-02-24T23:55:17.847Z,14.90
2019-02-24T23:57:47.062Z,15.35
